Norse Mersey — IBEN — position and weather

sailwx.info

Track history (hours):
 
Tides and Currents Weather Stations Pressure Air Temp Water Temp Dewpoint Dewpoint Depression Visibility Wind Speed Wind Dir Waves Ship Positions

Norse Mersey

Operator: Norse Merchant Ferries

Last reported at 2014-Oct-15 05:32 UTC. Time now 2014-Oct-23 06:53 UTC.
Position N 38°23' E 015°39'.
Warning: this ship's position is 8 days out of date.

Length 175 m; draft 5.4 m.

Type: Ship (hazmat cat A). MMSI: 247026000.

Date/timePositionNaut miles runAvg speedWind from/ knotsBaromVisibWave heightAir tempDewpointWater temp
2014-Oct-15 05:32N 38°23' E 015°39'159 3.3
2014-Oct-13 05:31N 35°53' E 014°31'0 0.0
2014-Oct-13 04:28N 35°53' E 014°31'0 0.0
2014-Oct-13 03:31N 35°53' E 014°31'0 0.0
2014-Oct-13 01:34N 35°53' E 014°31'10 9.5
2014-Oct-13 00:33N 36°00' E 014°38'1514.6
2014-Oct-12 23:33N 36°10' E 014°52'1614.9
2014-Oct-12 22:28N 36°21' E 015°07'260 8.9
2014-Oct-11 17:12N 40°40' E 014°44'0 0.0
2014-Oct-11 14:18N 40°40' E 014°44'0 0.0
2014-Oct-11 13:30N 40°40' E 014°44'145 4.3
2014-Oct-10 03:32N 38°22' E 015°38'  
Track history (hours):
 
Tides and Currents Weather Stations Pressure Air Temp Water Temp Dewpoint Dewpoint Depression Visibility Wind Speed Wind Dir Waves Ship Positions

Norse Mersey

Operator: Norse Merchant Ferries

Last reported at 2014-Oct-15 05:32 UTC. Time now 2014-Oct-23 06:53 UTC.
Position N 38°23' E 015°39'.
Warning: this ship's position is 8 days out of date.

Length 175 m; draft 5.4 m.

Type: Ship (hazmat cat A). MMSI: 247026000.

Date/timePositionNaut miles runAvg speedWind from/ knotsBaromVisibWave heightAir tempDewpointWater temp
2014-Oct-15 05:32N 38°23' E 015°39'159 3.3
2014-Oct-13 05:31N 35°53' E 014°31'0 0.0
2014-Oct-13 04:28N 35°53' E 014°31'0 0.0
2014-Oct-13 03:31N 35°53' E 014°31'0 0.0
2014-Oct-13 01:34N 35°53' E 014°31'10 9.5
2014-Oct-13 00:33N 36°00' E 014°38'1514.6
2014-Oct-12 23:33N 36°10' E 014°52'1614.9
2014-Oct-12 22:28N 36°21' E 015°07'260 8.9
2014-Oct-11 17:12N 40°40' E 014°44'0 0.0
2014-Oct-11 14:18N 40°40' E 014°44'0 0.0
2014-Oct-11 13:30N 40°40' E 014°44'145 4.3
2014-Oct-10 03:32N 38°22' E 015°38'  

Dump ship's entire track history